Time;durP1;ratioP1;P1;durP2;ratioP2;P2;SDS_P1;SDS_P2;PMS_P1;PMS_P2;Temp;Humidity;BMP_temperature;BMP_pressure;BME280_temperature;BME280_humidity;BME280_pressure;Samples;Min_cycle;Max_cycle;Signal;HPM_P1;HPM_P2
2022/10/10 00:02:27;;;;;;;3.20;1.20;;;10.10;52.30;;;9.09;53.51;101859.78;12254690;19;20014;-82
2022/10/10 00:06:29;;;;;;;1.00;1.00;;;10.10;52.30;;;9.04;53.26;101852.09;12254857;19;20023;-81
2022/10/10 00:10:32;;;;;;;1.30;1.10;;;10.00;52.40;;;9.01;53.57;101852.22;12250879;19;20017;-81
2022/10/10 00:14:33;;;;;;;1.30;1.20;;;10.00;52.30;;;8.97;53.52;101844.56;12252555;19;20002;-81
2022/10/10 00:18:36;;;;;;;1.30;1.20;;;10.00;52.40;;;8.93;53.36;101842.94;12252924;19;20010;-81
2022/10/10 00:22:38;;;;;;;1.05;0.95;;;10.00;52.30;;;8.88;53.27;101842.22;12254212;19;20021;-82
2022/10/10 00:26:40;;;;;;;3.33;1.17;;;9.90;52.20;;;8.82;53.57;101841.50;12254535;19;20026;-81
2022/10/10 00:30:42;;;;;;;0.98;0.93;;;9.90;52.30;;;8.69;53.63;101824.53;12248023;19;20014;-82
2022/10/10 00:34:44;;;;;;;1.80;1.10;;;9.80;52.30;;;8.71;53.58;101833.16;12248953;19;20015;-81
2022/10/10 00:38:45;;;;;;;1.60;1.02;;;9.70;52.30;;;8.47;53.52;101800.88;12252945;19;20014;-82
2022/10/10 00:42:47;;;;;;;1.13;1.02;;;9.70;52.40;;;8.59;53.57;101828.31;12251539;19;20081;-81
2022/10/10 00:46:49;;;;;;;1.33;1.00;;;9.70;52.30;;;8.59;53.63;101828.31;12252526;19;20014;-82
2022/10/10 00:50:51;;;;;;;2.30;1.40;;;9.60;52.50;;;8.45;53.63;101807.00;12248515;19;20542;-81
2022/10/10 00:54:53;;;;;;;1.35;1.25;;;9.60;52.50;;;8.45;53.52;101799.22;12248465;19;20014;-82
2022/10/10 00:59:01;;;;;;;1.58;1.10;;;9.60;52.60;;;8.47;53.74;101805.22;12248966;19;20508;-82
2022/10/10 01:03:03;;;;;;;1.50;1.30;;;9.60;52.60;;;8.38;53.63;101790.72;12251628;19;20033;-81
2022/10/10 01:07:25;;;;;;;1.98;1.08;;;9.50;52.60;;;8.37;53.75;101784.66;12251551;19;20042;-81
2022/10/10 01:11:41;;;;;;;1.17;1.00;;;9.50;52.60;;;8.45;53.67;101799.22;12250789;19;20038;-81
2022/10/10 01:15:53;;;;;;;;;;;9.50;52.60;;;8.38;53.73;101793.31;12265334;19;20025;-82
2022/10/10 01:20:15;;;;;;;1.13;0.98;;;9.50;52.50;;;8.33;53.84;101790.81;12255987;19;19943;-81
2022/10/10 01:24:41;;;;;;;2.15;1.30;;;9.50;52.60;;;8.30;53.74;101783.13;12263176;19;20477;-82
2022/10/10 01:29:49;;;;;;;0.85;0.85;;;9.40;52.60;;;8.24;53.75;101778.09;12268706;19;20019;-82
2022/10/10 01:34:17;;;;;;;2.00;1.23;;;9.40;52.70;;;8.20;53.63;101776.47;12258671;19;20364;-81
2022/10/10 01:38:37;;;;;;;0.73;0.73;;;9.30;52.60;;;8.15;53.99;101765.31;12262196;19;20366;-82
2022/10/10 01:43:02;;;;;;;1.60;1.08;;;9.30;52.60;;;8.10;53.75;101754.19;12261979;19;20010;-82
2022/10/10 01:47:04;;;;;;;;;;;9.30;52.60;;;8.13;53.71;101772.34;12263002;19;20019;-81
2022/10/10 01:51:32;;;;;;;0.88;0.88;;;9.30;52.40;;;8.09;53.85;101760.31;12255960;19;19927;-82
2022/10/10 01:56:03;;;;;;;1.48;0.95;;;9.20;52.50;;;7.97;53.93;101757.16;12259568;19;20023;-81
2022/10/10 02:00:11;;;;;;;1.27;0.88;;;9.20;52.50;;;7.99;53.92;101754.50;12257003;19;20043;-82
2022/10/10 02:04:31;;;;;;;1.90;1.30;;;9.10;52.50;;;7.89;53.78;101737.47;12258455;19;20042;-81
2022/10/10 02:08:46;;;;;;;1.05;1.02;;;9.10;52.70;;;7.96;53.96;101745.03;12257842;19;20022;-82
2022/10/10 02:12:49;;;;;;;2.08;1.15;;;9.00;52.60;;;7.92;54.02;101740.81;12259467;19;20039;-81
2022/10/10 02:16:54;;;;;;;1.42;1.23;;;9.00;52.60;;;7.74;53.91;101716.16;12260670;19;20402;-82
2022/10/10 02:20:56;;;;;;;3.92;1.20;;;9.00;52.60;;;7.81;53.96;101727.28;12254722;19;20484;-81
2022/10/10 02:24:58;;;;;;;1.55;1.23;;;8.90;52.60;;;7.66;54.10;101706.88;12256708;19;20535;-81
2022/10/10 02:29:24;;;;;;;1.45;1.23;;;8.90;52.60;;;7.79;54.14;101729.06;12256719;19;20010;-82
2022/10/10 02:33:59;;;;;;;0.95;0.90;;;8.90;52.70;;;7.65;54.21;101713.00;12255550;19;20023;-81
2022/10/10 02:38:03;;;;;;;1.90;1.08;;;9.10;52.80;;;7.63;53.93;101709.56;12257966;19;20015;-81
2022/10/10 02:42:08;;;;;;;1.00;0.93;;;8.80;52.50;;;7.56;54.16;101700.22;12258265;19;20031;-81
2022/10/10 02:46:13;;;;;;;1.80;1.25;;;8.80;52.60;;;7.61;54.11;101719.16;12256193;19;20480;-80
2022/10/10 02:50:14;;;;;;;1.65;1.25;;;8.70;52.50;;;7.54;54.14;101701.13;12252578;19;20011;-80
2022/10/10 02:54:16;;;;;;;1.35;1.13;;;8.70;52.60;;;7.44;53.91;101689.25;12251169;19;20061;-81
2022/10/10 02:58:18;;;;;;;1.10;0.98;;;8.70;52.70;;;7.53;54.22;101706.34;12255715;19;20031;-81
2022/10/10 03:02:19;;;;;;;1.50;1.30;;;8.70;52.70;;;7.50;54.04;101688.25;12256263;19;20031;-81
2022/10/10 03:06:20;;;;;;;1.48;1.38;;;8.60;52.70;;;7.42;54.28;101675.44;12255637;19;20017;-81
2022/10/10 03:10:22;;;;;;;1.30;1.15;;;8.80;52.80;;;7.44;54.25;101684.06;12252014;19;20010;-81
2022/10/10 03:14:23;;;;;;;1.20;1.10;;;8.60;52.80;;;7.41;54.30;101668.56;12252651;19;20047;-80
2022/10/10 03:18:25;;;;;;;2.25;1.17;;;8.50;52.90;;;7.28;54.29;101651.59;12257482;19;20018;-81
2022/10/10 03:22:26;;;;;;;1.80;1.10;;;8.50;52.90;;;7.28;54.23;101646.41;12257214;19;20014;-82
2022/10/10 03:26:28;;;;;;;1.30;1.20;;;8.50;52.90;;;7.33;54.20;101667.91;12255020;19;20093;-81
2022/10/10 03:30:30;;;;;;;1.65;1.27;;;8.50;52.90;;;7.31;54.24;101656.69;12253380;19;20028;-81
2022/10/10 03:34:31;;;;;;;2.42;1.38;;;8.40;53.00;;;7.30;54.42;101662.81;12254265;19;20015;-81
2022/10/10 03:38:33;;;;;;;2.08;1.48;;;8.40;53.10;;;7.23;54.46;101643.91;12264466;19;20014;-81
2022/10/10 03:42:35;;;;;;;1.98;1.30;;;8.40;53.10;;;7.24;54.40;101643.03;12256910;19;20082;-81
2022/10/10 03:46:36;;;;;;;1.17;1.08;;;8.40;53.00;;;7.23;54.31;101633.53;12258423;19;20027;-81
2022/10/10 03:50:38;;;;;;;1.60;0.95;;;8.40;53.10;;;7.26;54.50;101642.97;12256579;19;20021;-81
2022/10/10 03:54:39;;;;;;;1.90;1.13;;;8.40;53.20;;;7.23;54.52;101640.47;12253458;19;20007;-81
2022/10/10 03:58:41;;;;;;;3.38;1.45;;;8.40;53.20;;;7.24;54.58;101630.03;12255793;19;20019;-81
2022/10/10 04:02:43;;;;;;;3.72;1.17;;;8.40;53.40;;;7.19;54.48;101607.69;12254596;19;20021;-81
2022/10/10 04:06:44;;;;;;;2.85;1.13;;;8.30;53.40;;;7.14;54.56;101586.19;12251286;19;20356;-81
2022/10/10 04:10:53;;;;;;;1.50;1.35;;;8.40;53.40;;;7.11;54.58;101586.25;12250664;19;20417;-81
2022/10/10 04:14:54;;;;;;;1.85;1.42;;;8.30;53.40;;;7.18;54.68;101587.78;12250727;19;20046;-81
2022/10/10 04:18:56;;;;;;;3.00;1.20;;;8.30;53.60;;;7.17;54.67;101594.72;12250845;19;20010;-81
2022/10/10 04:22:58;;;;;;;2.72;1.45;;;8.40;53.60;;;7.17;54.80;101579.16;12250256;19;20015;-81
2022/10/10 04:26:59;;;;;;;1.73;1.23;;;8.40;53.90;;;7.16;54.74;101576.59;12254996;19;20048;-81
2022/10/10 04:31:01;;;;;;;1.50;1.15;;;8.30;54.20;;;7.18;54.87;101570.44;12251481;19;20009;-80
2022/10/10 04:35:04;;;;;;;1.60;1.25;;;8.30;53.70;;;7.19;54.85;101569.56;12249812;19;20018;-82
2022/10/10 04:39:06;;;;;;;2.65;1.10;;;8.40;53.90;;;7.01;54.86;101531.97;12248219;19;20473;-81
2022/10/10 04:43:07;;;;;;;2.03;1.30;;;8.30;53.90;;;7.19;54.96;101547.94;12251748;19;20047;-81
2022/10/10 04:47:08;;;;;;;1.88;1.10;;;8.30;53.90;;;7.09;54.88;101524.81;12251238;19;20346;-81
2022/10/10 04:51:10;;;;;;;2.83;1.33;;;8.40;54.00;;;7.20;54.81;101527.09;12247540;19;20078;-81
2022/10/10 04:55:12;;;;;;;2.20;1.33;;;8.40;54.10;;;7.19;55.07;101519.38;12246998;19;20022;-81
2022/10/10 04:59:13;;;;;;;2.78;1.50;;;8.40;54.00;;;7.17;55.12;101515.97;12248362;19;20029;-81
2022/10/10 05:03:15;;;;;;;1.60;1.50;;;8.40;54.00;;;7.27;55.12;101514.81;12251626;19;20079;-81
2022/10/10 05:07:16;;;;;;;5.57;1.60;;;8.40;54.10;;;7.24;54.96;101512.31;12251278;19;20010;-81
2022/10/10 05:11:18;;;;;;;1.80;1.38;;;8.50;54.20;;;7.21;54.98;101499.38;12246431;19;20019;-81
2022/10/10 05:15:20;;;;;;;2.35;1.30;;;8.50;54.00;;;7.28;55.08;101519.94;12245150;19;20015;-81
2022/10/10 05:19:22;;;;;;;4.28;1.40;;;8.70;54.30;;;7.29;55.21;101505.19;12245934;19;20018;-81
2022/10/10 05:23:24;;;;;;;1.73;1.30;;;8.50;54.10;;;7.16;55.01;101488.28;12248664;19;20364;-81
2022/10/10 05:27:27;;;;;;;4.05;1.70;;;8.50;53.90;;;7.28;55.08;101508.72;12245451;19;20504;-81
2022/10/10 05:31:28;;;;;;;1.80;1.38;;;8.50;53.90;;;7.29;55.21;101505.19;12243077;19;20021;-81
2022/10/10 05:35:30;;;;;;;1.65;1.13;;;8.50;53.70;;;7.18;55.01;101483.88;12247509;19;20038;-80
2022/10/10 05:39:32;;;;;;;2.75;1.20;;;8.50;53.60;;;7.13;55.04;101471.06;12243239;19;20485;-81
2022/10/10 05:43:34;;;;;;;3.92;1.88;;;8.40;53.90;;;6.96;55.18;101453.34;12248072;19;20014;-81
2022/10/10 05:47:35;;;;;;;2.28;1.52;;;8.40;53.60;;;7.12;55.15;101478.88;12259408;19;20010;-81
2022/10/10 05:51:37;;;;;;;1.55;0.95;;;8.30;54.00;;;7.07;55.15;101464.28;12248781;19;20011;-81
2022/10/10 05:55:38;;;;;;;1.60;1.50;;;8.30;53.70;;;7.09;55.08;101465.06;12249963;19;20010;-80
2022/10/10 05:59:40;;;;;;;4.20;1.67;;;8.30;53.80;;;7.06;55.24;101459.97;12256215;19;20010;-80
2022/10/10 06:03:42;;;;;;;3.05;1.48;;;8.30;53.90;;;7.05;55.31;101458.28;12259718;19;20023;-80
2022/10/10 06:07:43;;;;;;;2.75;1.42;;;8.20;54.00;;;6.93;55.33;101434.41;12258076;19;20011;-80
2022/10/10 06:11:45;;;;;;;2.08;1.65;;;8.30;54.40;;;7.07;55.36;101453.91;12259324;19;20010;-81
2022/10/10 06:15:50;;;;;;;4.85;2.03;;;8.30;54.60;;;7.03;55.51;101439.28;12258967;19;20018;-83
2022/10/10 06:19:52;;;;;;;2.00;1.52;;;8.30;54.80;;;7.15;55.36;101439.81;12258821;19;20018;-81
2022/10/10 06:23:54;;;;;;;2.45;1.65;;;8.40;54.90;;;7.25;55.51;101449.91;12258173;19;20019;-80
2022/10/10 06:27:56;;;;;;;3.00;1.67;;;8.40;55.00;;;7.23;55.69;101430.91;12259023;19;20072;-81
2022/10/10 06:31:57;;;;;;;8.30;1.92;;;8.50;55.30;;;7.39;55.51;101441.69;12258065;19;20094;-80
2022/10/10 06:36:05;;;;;;;2.75;2.10;;;8.60;55.80;;;7.34;55.56;101416.75;12257480;19;20009;-80
2022/10/10 06:40:06;;;;;;;2.45;1.80;;;8.60;55.80;;;7.51;55.81;101436.13;12253387;19;20010;-81
2022/10/10 06:44:08;;;;;;;3.83;1.63;;;8.70;55.70;;;7.57;55.78;101434.25;12259052;19;20014;-81
2022/10/10 06:48:12;;;;;;;2.30;1.70;;;8.80;55.60;;;7.60;55.93;101423.75;12258486;19;20464;-80
2022/10/10 06:52:14;;;;;;;3.45;1.80;;;8.80;55.60;;;7.69;55.81;101432.06;12251918;19;20058;-81
2022/10/10 06:56:22;;;;;;;2.40;1.85;;;8.90;55.90;;;7.77;56.06;101439.63;12255029;19;20018;-79
2022/10/10 07:00:24;;;;;;;4.32;1.80;;;9.00;55.80;;;7.85;56.12;101439.41;12249282;19;20019;-80
2022/10/10 07:04:26;;;;;;;2.78;1.73;;;9.10;56.50;;;8.01;56.20;101444.94;12253162;19;20019;-81
2022/10/10 07:08:28;;;;;;;2.83;1.80;;;9.20;56.30;;;8.09;56.06;101442.94;12249935;19;20010;-79
2022/10/10 07:12:30;;;;;;;2.30;2.10;;;9.30;56.30;;;8.22;56.28;101449.44;12251465;19;20524;-79
2022/10/10 07:16:32;;;;;;;4.97;2.00;;;9.40;56.60;;;8.35;56.36;101442.06;12252167;19;20006;-80
2022/10/10 07:20:35;;;;;;;4.35;1.90;;;9.60;56.70;;;8.47;56.36;101443.44;12247705;19;20504;-80
2022/10/10 07:24:36;;;;;;;1.95;1.73;;;9.70;56.70;;;8.56;56.33;101435.28;12251249;19;20045;-79
2022/10/10 07:28:38;;;;;;;3.85;2.10;;;9.80;56.50;;;8.67;56.51;101427.97;12249331;19;20019;-81
2022/10/10 07:32:40;;;;;;;4.28;1.73;;;10.00;56.80;;;8.83;56.46;101429.09;12250815;19;20018;-81
2022/10/10 07:36:45;;;;;;;3.72;2.55;;;10.10;57.00;;;8.97;56.73;101432.97;12253617;19;20038;-80
2022/10/10 07:40:46;;;;;;;2.05;1.77;;;10.20;57.40;;;9.10;56.63;101423.78;12249990;19;20016;-80
2022/10/10 07:44:48;;;;;;;1.70;1.60;;;10.40;57.80;;;9.22;56.94;101405.06;12253289;19;20027;-81
2022/10/10 07:48:50;;;;;;;3.63;1.73;;;10.60;58.00;;;9.52;56.92;101420.41;12248564;19;20039;-80
2022/10/10 07:52:52;;;;;;;1.73;1.25;;;10.80;58.00;;;9.72;57.00;101432.63;12257883;19;20006;-80
2022/10/10 07:56:53;;;;;;;3.17;1.70;;;11.00;57.50;;;9.88;57.10;101430.25;12253608;19;20031;-81
2022/10/10 08:01:07;;;;;;;1.65;1.55;;;11.20;57.50;;;9.89;57.12;101419.78;12248023;19;20094;-81
2022/10/10 08:05:09;;;;;;;2.42;1.60;;;11.30;57.70;;;10.27;57.14;101437.34;12249722;19;20006;-80
2022/10/10 08:09:10;;;;;;;3.28;2.33;;;11.50;57.80;;;10.45;57.34;101423.56;12249315;19;20351;-80
2022/10/10 08:13:12;;;;;;;4.55;2.85;;;11.70;57.30;;;10.67;57.29;101414.78;12250414;19;20418;-78
2022/10/10 08:17:13;;;;;;;4.57;2.45;;;12.10;57.20;;;10.88;57.24;101416.41;12253185;19;20022;-81
2022/10/10 08:21:16;;;;;;;4.93;3.42;;;12.20;56.90;;;11.04;57.11;101411.31;12244655;19;20038;-80
2022/10/10 08:25:18;;;;;;;3.83;2.30;;;12.40;56.80;;;11.24;57.06;101403.41;12252365;19;20002;-83
2022/10/10 08:29:20;;;;;;;3.80;2.13;;;12.80;56.50;;;11.41;57.05;101401.75;12252873;19;20019;-84
2022/10/10 08:33:26;;;;;;;2.20;1.98;;;13.10;56.00;;;11.52;57.17;101404.69;12252207;19;20052;-83
2022/10/10 08:37:28;;;;;;;3.13;2.10;;;12.90;55.70;;;11.74;56.91;101412.34;12252787;19;20023;-84
2022/10/10 08:41:41;;;;;;;5.10;2.67;;;13.10;55.60;;;11.85;57.00;101401.34;12250612;19;20018;-85
2022/10/10 08:45:43;;;;;;;5.75;2.50;;;13.20;55.40;;;11.89;56.78;101390.69;12254321;19;20011;-81
2022/10/10 08:50:01;;;;;;;3.47;2.10;;;13.30;55.40;;;12.04;56.95;101386.44;12244709;19;20089;-80
2022/10/10 08:54:05;;;;;;;4.28;2.33;;;13.40;55.20;;;12.15;56.89;101384.16;12251457;19;20350;-81
2022/10/10 08:58:38;;;;;;;2.88;2.15;;;13.60;55.10;;;12.30;57.05;101369.41;12249064;19;20498;-80
2022/10/10 09:02:57;;;;;;;2.03;1.70;;;13.70;55.10;;;12.57;56.82;101380.22;12249563;19;20015;-81
2022/10/10 09:07:29;;;;;;;5.10;1.95;;;13.90;55.10;;;12.80;56.83;101384.22;12251144;19;20018;-80
2022/10/10 09:12:02;;;;;;;2.75;1.95;;;14.10;54.60;;;12.99;56.74;101368.34;12246191;19;20438;-80
2022/10/10 09:16:58;;;;;;;5.60;2.40;;;14.30;54.20;;;13.26;56.71;101367.78;12247790;19;20010;-80
2022/10/10 09:21:19;;;;;;;3.25;1.95;;;14.60;54.20;;;13.61;56.67;101370.16;12243002;19;20089;-80
2022/10/10 09:25:26;;;;;;;2.72;1.70;;;14.90;54.50;;;13.53;56.41;101299.78;12248495;19;20039;-81
2022/10/10 09:30:01;;;;;;;3.33;2.42;;;15.10;53.60;;;14.16;56.46;101354.63;12243693;19;20003;-81
2022/10/10 09:34:18;;;;;;;5.35;2.88;;;15.40;53.00;;;14.43;56.30;101363.56;12253160;19;20022;-81
2022/10/10 09:38:40;;;;;;;2.03;1.70;;;15.70;52.80;;;14.53;56.09;101336.66;12259451;19;20014;-83
2022/10/10 09:42:43;;;;;;;1.73;1.50;;;15.90;53.10;;;14.86;56.16;101345.16;12257539;19;20386;-80
2022/10/10 09:46:45;;;;;;;1.73;1.58;;;16.10;52.80;;;14.93;55.90;101352.56;12255939;19;20010;-79
2022/10/10 09:50:46;;;;;;;2.10;1.77;;;16.30;52.70;;;15.11;55.92;101344.44;12249120;19;20047;-79
2022/10/10 09:54:54;;;;;;;2.30;1.40;;;16.50;51.60;;;15.15;55.75;101328.38;12250831;19;20598;-80
2022/10/10 09:58:56;;;;;;;2.15;1.48;;;16.60;52.20;;;15.42;55.74;101338.03;12255952;19;20014;-79
2022/10/10 10:03:11;;;;;;;3.80;1.85;;;16.80;52.40;;;15.57;55.50;101333.53;12272959;19;20007;-80
2022/10/10 10:07:27;;;;;;;1.83;1.67;;;16.90;51.50;;;15.72;55.49;101335.19;12261294;19;20022;-80
2022/10/10 10:11:38;;;;;;;4.97;1.90;;;17.20;51.10;;;15.69;55.17;101303.81;12252169;19;20027;-79
2022/10/10 10:15:56;;;;;;;2.72;1.90;;;17.20;50.80;;;15.98;55.08;101340.47;12256468;19;20081;-79
2022/10/10 10:19:58;;;;;;;2.58;1.90;;;17.30;51.40;;;16.10;55.03;101334.38;12255045;19;20013;-80
2022/10/10 10:24:18;;;;;;;3.92;1.90;;;17.30;50.60;;;16.15;54.93;101324.38;12256444;19;20015;-79
2022/10/10 10:28:21;;;;;;;2.05;1.58;;;17.50;51.20;;;16.24;54.71;101325.50;12256263;19;20497;-80
2022/10/10 10:32:48;;;;;;;2.33;1.45;;;17.60;50.10;;;16.38;54.61;101334.13;12255616;19;20010;-80
2022/10/10 10:36:56;;;;;;;2.80;1.73;;;17.60;50.90;;;16.55;54.73;101332.09;12256926;19;20007;-79
2022/10/10 10:41:04;;;;;;;1.60;1.50;;;17.80;50.80;;;16.63;54.46;101323.66;12253034;19;20659;-81
2022/10/10 10:45:21;;;;;;;2.17;1.50;;;17.90;50.60;;;16.66;54.29;101315.50;12255511;19;20033;-80
2022/10/10 10:49:41;;;;;;;1.83;1.40;;;18.00;50.60;;;16.81;54.27;101311.81;12244611;19;20019;-81
2022/10/10 10:54:03;;;;;;;2.63;1.17;;;18.20;50.20;;;16.79;54.25;101309.28;12249164;19;20010;-80
2022/10/10 10:58:45;;;;;;;1.80;1.50;;;18.10;49.60;;;16.95;54.06;101318.72;12250758;19;20605;-81
2022/10/10 11:03:09;;;;;;;4.28;1.95;;;18.20;50.00;;;17.08;54.20;101311.59;12251154;19;20006;-80
2022/10/10 11:07:21;;;;;;;2.17;1.70;;;18.30;50.10;;;17.06;54.04;101275.72;12256179;19;20011;-81
2022/10/10 11:11:48;;;;;;;1.95;1.15;;;18.40;49.50;;;17.31;53.65;101296.72;12247112;19;21660;-80
2022/10/10 11:15:58;;;;;;;2.15;1.02;;;18.50;49.80;;;17.33;53.67;101270.19;12254655;19;20011;-79
2022/10/10 11:20:02;;;;;;;1.88;1.55;;;18.60;50.10;;;17.53;53.44;101287.19;12248516;19;20006;-79
2022/10/10 11:24:23;;;;;;;1.52;1.23;;;18.70;50.00;;;17.62;53.75;101268.84;12254655;19;20003;-80
2022/10/10 11:28:40;;;;;;;2.90;1.73;;;18.80;50.30;;;17.65;53.47;101259.84;12251619;19;20022;-80
2022/10/10 11:33:00;;;;;;;3.35;2.28;;;18.90;50.20;;;17.80;53.59;101264.00;12247979;19;20612;-81
2022/10/10 11:37:17;;;;;;;3.88;1.70;;;19.00;49.50;;;17.97;53.34;101262.69;12250623;19;20022;-81
2022/10/10 11:41:47;;;;;;;2.03;1.70;;;19.20;50.10;;;18.13;53.48;101263.16;12246465;19;20011;-81
2022/10/10 11:46:00;;;;;;;2.33;1.55;;;19.30;50.20;;;18.27;53.04;101263.88;12250490;19;20016;-81
2022/10/10 11:50:17;;;;;;;3.53;2.78;;;19.40;49.40;;;18.28;53.10;101253.19;12249997;19;20015;-83
2022/10/10 11:54:34;;;;;;;2.85;1.63;;;19.50;49.20;;;18.42;52.86;101254.72;12248101;19;20026;-81
2022/10/10 11:58:53;;;;;;;1.75;1.30;;;19.60;49.10;;;18.41;52.75;101250.38;12251932;19;20378;-81
2022/10/10 12:02:56;;;;;;;2.08;1.60;;;19.60;49.10;;;18.43;52.68;101229.97;12250471;19;20034;-81
2022/10/10 12:07:06;;;;;;;2.83;1.88;;;19.70;49.20;;;18.49;52.37;101237.38;12251660;19;20039;-81
2022/10/10 12:11:28;;;;;;;1.85;1.70;;;19.80;48.70;;;18.64;52.27;101237.13;12254358;19;20007;-81
2022/10/10 12:15:36;;;;;;;3.00;1.80;;;19.80;48.10;;;18.64;52.26;101242.44;12256478;19;20350;-80
2022/10/10 12:19:38;;;;;;;2.92;1.70;;;19.80;48.30;;;18.65;52.41;101231.69;12251114;19;20031;-80
2022/10/10 12:23:42;;;;;;;2.30;1.70;;;19.80;48.90;;;18.73;52.26;101233.72;12253974;19;20011;-81
2022/10/10 12:28:01;;;;;;;5.68;2.00;;;19.90;48.60;;;18.77;51.88;101237.84;12252425;19;20003;-81
2022/10/10 12:32:12;;;;;;;2.88;2.10;;;19.90;47.80;;;18.76;51.89;101236.16;12251604;19;20049;-81
2022/10/10 12:36:17;;;;;;;4.88;2.15;;;19.90;48.10;;;18.77;51.76;101236.03;12252202;19;20014;-81
2022/10/10 12:40:21;;;;;;;2.28;1.92;;;19.90;48.30;;;18.82;51.64;101229.50;12248932;19;20428;-80
2022/10/10 12:44:41;;;;;;;1.45;1.33;;;19.90;48.20;;;18.81;51.84;101220.75;12250546;19;20019;-80
2022/10/10 12:48:44;;;;;;;2.13;1.50;;;19.80;48.60;;;18.78;51.56;101215.72;12250422;19;20038;-80
2022/10/10 12:53:03;;;;;;;1.95;1.73;;;19.90;48.80;;;18.75;51.42;101210.66;12251679;19;20018;-81
2022/10/10 12:57:15;;;;;;;2.70;1.77;;;19.90;48.40;;;18.94;51.56;101225.88;12250870;19;20010;-82
2022/10/10 13:01:28;;;;;;;3.03;2.00;;;20.00;48.40;;;18.89;51.41;101210.38;12242936;19;20062;-80
2022/10/10 13:05:38;;;;;;;3.28;1.88;;;20.00;48.10;;;18.94;51.30;101213.47;12252005;19;20013;-80
2022/10/10 13:09:45;;;;;;;1.92;1.70;;;20.00;47.90;;;18.98;51.12;101217.56;12256910;19;20085;-79
2022/10/10 13:13:53;;;;;;;1.98;1.77;;;20.20;48.30;;;18.97;51.00;101207.91;12259033;19;20022;-80
2022/10/10 13:17:54;;;;;;;2.40;1.88;;;20.00;48.20;;;19.00;51.12;101214.78;12263389;19;20049;-81
2022/10/10 13:21:56;;;;;;;5.28;2.30;;;20.00;47.80;;;18.94;50.90;101200.25;12261902;19;20567;-79
2022/10/10 13:25:58;;;;;;;3.92;2.15;;;20.00;47.90;;;18.96;51.07;101200.13;12263337;19;20035;-80
2022/10/10 13:30:00;;;;;;;4.78;1.80;;;19.90;47.90;;;18.94;50.63;101194.94;12259792;19;20006;-80
2022/10/10 13:34:06;;;;;;;1.65;1.55;;;19.90;47.90;;;18.88;50.82;101184.03;12258491;19;20497;-79
2022/10/10 13:38:10;;;;;;;2.60;1.63;;;19.90;48.60;;;19.02;50.76;101195.16;12258645;19;20035;-80
2022/10/10 13:42:35;;;;;;;2.72;1.85;;;20.00;48.50;;;18.96;50.68;101185.09;12258642;19;20022;-80
2022/10/10 13:46:36;;;;;;;2.22;1.80;;;20.00;48.20;;;19.06;50.93;101185.13;12259570;19;20022;-80
2022/10/10 13:50:43;;;;;;;5.15;1.60;;;20.00;48.50;;;19.11;50.88;101190.88;12255663;19;20030;-81
2022/10/10 13:54:48;;;;;;;2.25;1.60;;;20.00;48.60;;;19.09;50.70;101186.69;12256430;19;20116;-81
2022/10/10 13:59:04;;;;;;;1.67;1.55;;;20.10;48.70;;;19.16;50.55;101190.50;12258638;19;20423;-80
2022/10/10 14:03:16;;;;;;;2.95;1.40;;;20.30;48.90;;;19.10;50.86;101177.78;12259061;19;20129;-80
2022/10/10 14:07:27;;;;;;;2.08;1.42;;;20.30;49.00;;;19.21;50.83;101196.25;12257901;19;20358;-80
2022/10/10 14:11:30;;;;;;;1.33;1.23;;;20.20;48.80;;;19.14;50.52;101168.59;12253802;19;20221;-83
2022/10/10 14:15:40;;;;;;;5.47;1.95;;;20.20;48.80;;;19.26;50.92;101169.41;12254132;19;20034;-83
2022/10/10 14:19:45;;;;;;;1.70;1.60;;;20.30;48.90;;;19.16;50.60;101146.34;12254652;19;20019;-82
2022/10/10 14:23:46;;;;;;;3.22;1.40;;;20.20;48.70;;;19.33;50.54;101175.84;12267156;19;20038;-83
2022/10/10 14:27:47;;;;;;;1.80;1.55;;;20.20;48.80;;;19.33;50.36;101168.72;12260977;19;20010;-82
2022/10/10 14:31:49;;;;;;;4.82;2.72;;;20.20;48.50;;;19.31;50.24;101167.16;12255288;19;20018;-84
2022/10/10 14:35:53;;;;;;;3.20;2.22;;;20.20;48.30;;;19.29;50.64;101169.13;12259483;19;20078;-84
2022/10/10 14:39:55;;;;;;;3.35;2.92;;;20.20;48.60;;;19.06;50.48;101121.59;12251846;19;20369;-82
2022/10/10 14:43:56;;;;;;;2.97;2.42;;;20.20;48.70;;;19.26;50.63;101151.69;12252554;19;20015;-83
2022/10/10 14:47:58;;;;;;;2.28;2.08;;;20.20;48.70;;;19.28;50.35;101155.06;12258474;19;20034;-82
2022/10/10 14:52:00;;;;;;;2.85;2.03;;;20.40;48.90;;;19.34;50.49;101145.75;12256310;19;20096;-82
2022/10/10 14:56:02;;;;;;;3.40;2.20;;;20.20;48.60;;;19.27;50.36;101131.34;12249598;19;20014;-81
2022/10/10 15:00:14;;;;;;;2.25;1.83;;;20.20;48.90;;;19.29;50.29;101140.84;12254987;19;20044;-83
2022/10/10 15:04:16;;;;;;;2.47;1.52;;;20.20;48.40;;;19.31;50.43;101133.59;12255224;19;20011;-82
2022/10/10 15:08:18;;;;;;;5.85;4.07;;;20.20;48.60;;;19.30;50.05;101141.66;12255319;19;20007;-82
2022/10/10 15:12:19;;;;;;;6.20;4.30;;;20.20;48.50;;;19.24;50.16;101143.88;12257565;19;20006;-82
2022/10/10 15:16:21;;;;;;;5.07;3.92;;;20.10;48.60;;;19.17;50.04;101131.28;12256821;19;20014;-82
2022/10/10 15:20:29;;;;;;;10.75;6.68;;;20.10;48.80;;;19.18;50.17;101140.91;12255082;19;20011;-83
2022/10/10 15:24:32;;;;;;;12.02;6.88;;;20.10;48.80;;;19.13;50.37;101133.34;12253234;19;20022;-82
2022/10/10 15:28:34;;;;;;;7.45;5.78;;;20.10;48.90;;;19.18;50.06;101147.03;12254732;19;20022;-82
2022/10/10 15:32:40;;;;;;;8.45;5.63;;;20.00;48.80;;;19.04;50.42;101135.94;12254097;19;20523;-82
2022/10/10 15:36:42;;;;;;;7.90;4.88;;;20.10;49.00;;;19.08;50.31;101140.84;12249411;19;20488;-83
2022/10/10 15:40:43;;;;;;;8.15;4.70;;;20.00;49.10;;;19.05;50.33;101149.06;12251019;19;20331;-82
2022/10/10 15:44:48;;;;;;;7.90;5.60;;;20.00;49.20;;;18.87;50.40;101134.72;12242227;19;20007;-82
2022/10/10 15:48:50;;;;;;;8.57;4.88;;;19.90;49.30;;;18.93;50.28;101143.00;12251989;19;20082;-84
2022/10/10 15:52:51;;;;;;;4.80;3.40;;;19.90;49.30;;;18.97;50.27;101162.94;12244956;19;20663;-81
2022/10/10 15:56:53;;;;;;;4.00;2.30;;;19.80;49.60;;;18.86;50.30;101157.69;12249751;19;20362;-82
2022/10/10 16:00:54;;;;;;;2.92;1.88;;;19.80;49.60;;;18.91;50.30;101173.19;12253452;19;20014;-83
2022/10/10 16:04:56;;;;;;;3.78;1.98;;;19.70;49.70;;;18.77;50.32;101171.69;12251269;19;20019;-82
2022/10/10 16:08:58;;;;;;;2.78;2.05;;;19.90;49.90;;;18.74;50.29;101166.59;12251014;19;20031;-82
2022/10/10 16:12:59;;;;;;;6.35;2.58;;;19.60;49.70;;;18.64;50.15;101166.53;12253252;19;20503;-82
2022/10/10 16:17:01;;;;;;;2.78;2.22;;;19.50;49.70;;;18.38;50.25;101154.59;12252325;19;20015;-81
2022/10/10 16:21:05;;;;;;;3.00;1.75;;;19.40;50.20;;;18.41;50.23;101172.88;12252107;19;20014;-82
2022/10/10 16:25:07;;;;;;;1.88;1.45;;;19.20;49.90;;;18.28;50.32;101186.22;12252717;19;20014;-82
2022/10/10 16:29:09;;;;;;;1.90;1.80;;;19.10;49.90;;;18.08;50.45;101159.59;12252277;19;20015;-83
2022/10/10 16:33:11;;;;;;;2.75;1.67;;;19.00;49.90;;;17.96;50.20;101171.16;12264800;19;20371;-82
2022/10/10 16:37:13;;;;;;;1.92;1.70;;;18.90;50.10;;;17.81;50.44;101161.78;12253749;19;20006;-83
2022/10/10 16:41:17;;;;;;;1.50;1.40;;;18.70;50.20;;;17.77;50.22;101186.72;12250568;19;20014;-81
2022/10/10 16:45:19;;;;;;;1.95;1.40;;;18.50;50.30;;;17.65;50.45;101186.72;12252375;19;20019;-82
2022/10/10 16:49:22;;;;;;;2.55;1.45;;;18.40;50.50;;;17.59;50.51;101175.81;12250133;19;20002;-83
2022/10/10 16:53:23;;;;;;;2.95;1.45;;;18.30;50.60;;;17.46;50.60;101170.63;12250860;19;20049;-83
2022/10/10 16:57:25;;;;;;;2.50;1.55;;;18.20;50.70;;;17.31;50.68;101156.81;12250020;19;20011;-82
2022/10/10 17:01:27;;;;;;;2.03;1.52;;;18.10;50.80;;;17.12;50.64;101144.19;12248635;19;20015;-82
2022/10/10 17:05:28;;;;;;;2.05;1.55;;;18.00;50.80;;;17.20;50.75;101177.88;12252757;19;20039;-82
2022/10/10 17:09:30;;;;;;;2.20;2.03;;;17.90;50.90;;;17.08;50.85;101168.28;12251884;19;20018;-83